sensor_id;sensor_type;location;lat;lon;timestamp;temperature;humidity
26081;DHT22;13991;51.174;4.438;2024-01-06T00:02:06;9.30;99.90
26081;DHT22;13991;51.174;4.438;2024-01-06T00:04:32;9.20;99.90
26081;DHT22;13991;51.174;4.438;2024-01-06T00:06:57;9.20;99.90
26081;DHT22;13991;51.174;4.438;2024-01-06T00:09:23;9.20;99.90
26081;DHT22;13991;51.174;4.438;2024-01-06T00:11:49;9.20;99.90
26081;DHT22;13991;51.174;4.438;2024-01-06T00:14:14;9.20;99.90
26081;DHT22;13991;51.174;4.438;2024-01-06T00:16:40;9.20;99.90
26081;DHT22;13991;51.174;4.438;2024-01-06T00:19:05;9.30;99.90
26081;DHT22;13991;51.174;4.438;2024-01-06T00:21:31;9.30;99.90
26081;DHT22;13991;51.174;4.438;2024-01-06T00:23:57;9.30;99.90
26081;DHT22;13991;51.174;4.438;2024-01-06T00:26:22;9.40;99.90
26081;DHT22;13991;51.174;4.438;2024-01-06T00:28:49;9.40;99.90
26081;DHT22;13991;51.174;4.438;2024-01-06T00:31:16;9.40;99.90
26081;DHT22;13991;51.174;4.438;2024-01-06T00:33:45;9.30;99.90
26081;DHT22;13991;51.174;4.438;2024-01-06T00:36:10;9.40;99.90
26081;DHT22;13991;51.174;4.438;2024-01-06T00:38:36;9.40;99.90
26081;DHT22;13991;51.174;4.438;2024-01-06T00:41:02;9.40;99.90
26081;DHT22;13991;51.174;4.438;2024-01-06T00:43:28;9.30;99.90
26081;DHT22;13991;51.174;4.438;2024-01-06T00:45:53;9.40;99.90
26081;DHT22;13991;51.174;4.438;2024-01-06T00:48:19;9.30;99.90
26081;DHT22;13991;51.174;4.438;2024-01-06T00:50:44;9.30;99.90
26081;DHT22;13991;51.174;4.438;2024-01-06T00:53:11;9.40;99.90
26081;DHT22;13991;51.174;4.438;2024-01-06T00:55:37;9.40;99.90
26081;DHT22;13991;51.174;4.438;2024-01-06T00:58:02;9.40;99.90
26081;DHT22;13991;51.174;4.438;2024-01-06T01:00:28;9.30;99.90
26081;DHT22;13991;51.174;4.438;2024-01-06T01:02:54;9.40;99.90
26081;DHT22;13991;51.174;4.438;2024-01-06T01:05:19;9.30;99.90
26081;DHT22;13991;51.174;4.438;2024-01-06T01:07:45;9.40;99.90
26081;DHT22;13991;51.174;4.438;2024-01-06T01:10:11;9.50;99.90
26081;DHT22;13991;51.174;4.438;2024-01-06T01:12:37;9.50;99.90
26081;DHT22;13991;51.174;4.438;2024-01-06T01:15:02;9.50;99.90
26081;DHT22;13991;51.174;4.438;2024-01-06T01:17:29;9.50;99.90
26081;DHT22;13991;51.174;4.438;2024-01-06T01:19:55;9.50;99.90
26081;DHT22;13991;51.174;4.438;2024-01-06T01:22:21;9.50;99.90
26081;DHT22;13991;51.174;4.438;2024-01-06T01:24:46;9.50;99.90
26081;DHT22;13991;51.174;4.438;2024-01-06T01:27:12;9.50;99.90
26081;DHT22;13991;51.174;4.438;2024-01-06T01:29:38;9.60;99.90
26081;DHT22;13991;51.174;4.438;2024-01-06T01:32:04;9.60;99.90
26081;DHT22;13991;51.174;4.438;2024-01-06T01:34:29;9.50;99.90
26081;DHT22;13991;51.174;4.438;2024-01-06T01:36:55;9.50;99.90
26081;DHT22;13991;51.174;4.438;2024-01-06T01:39:21;9.60;99.90
26081;DHT22;13991;51.174;4.438;2024-01-06T01:41:46;9.60;99.90
26081;DHT22;13991;51.174;4.438;2024-01-06T01:44:12;9.60;99.90
26081;DHT22;13991;51.174;4.438;2024-01-06T01:46:37;9.60;99.90
26081;DHT22;13991;51.174;4.438;2024-01-06T01:49:04;9.60;99.90
26081;DHT22;13991;51.174;4.438;2024-01-06T01:51:32;9.60;99.90
26081;DHT22;13991;51.174;4.438;2024-01-06T01:54:00;9.60;99.90
26081;DHT22;13991;51.174;4.438;2024-01-06T01:56:26;9.60;99.90
26081;DHT22;13991;51.174;4.438;2024-01-06T01:58:53;9.60;99.90
26081;DHT22;13991;51.174;4.438;2024-01-06T02:01:18;9.60;99.90
26081;DHT22;13991;51.174;4.438;2024-01-06T02:03:44;9.60;99.90
26081;DHT22;13991;51.174;4.438;2024-01-06T02:06:11;9.60;99.90
26081;DHT22;13991;51.174;4.438;2024-01-06T02:08:37;9.50;99.90
26081;DHT22;13991;51.174;4.438;2024-01-06T02:11:03;9.40;99.90
26081;DHT22;13991;51.174;4.438;2024-01-06T02:13:37;9.40;99.90
26081;DHT22;13991;51.174;4.438;2024-01-06T02:16:03;9.40;99.90
26081;DHT22;13991;51.174;4.438;2024-01-06T02:18:30;9.40;99.90
26081;DHT22;13991;51.174;4.438;2024-01-06T02:20:58;9.30;99.90
26081;DHT22;13991;51.174;4.438;2024-01-06T02:23:24;9.30;99.90
26081;DHT22;13991;51.174;4.438;2024-01-06T02:25:50;9.30;99.90
26081;DHT22;13991;51.174;4.438;2024-01-06T02:28:15;9.20;99.90
26081;DHT22;13991;51.174;4.438;2024-01-06T02:30:41;9.20;99.90
26081;DHT22;13991;51.174;4.438;2024-01-06T02:33:07;9.10;99.90
26081;DHT22;13991;51.174;4.438;2024-01-06T02:35:32;9.10;99.90
26081;DHT22;13991;51.174;4.438;2024-01-06T02:37:58;9.10;99.90
26081;DHT22;13991;51.174;4.438;2024-01-06T02:40:24;9.20;99.90
26081;DHT22;13991;51.174;4.438;2024-01-06T02:42:49;9.10;99.90
26081;DHT22;13991;51.174;4.438;2024-01-06T02:45:15;9.00;99.90
26081;DHT22;13991;51.174;4.438;2024-01-06T02:47:40;9.00;99.90
26081;DHT22;13991;51.174;4.438;2024-01-06T02:50:06;8.80;99.90
26081;DHT22;13991;51.174;4.438;2024-01-06T02:52:32;8.80;99.90
26081;DHT22;13991;51.174;4.438;2024-01-06T02:54:58;8.80;99.90
26081;DHT22;13991;51.174;4.438;2024-01-06T02:57:24;8.70;99.90
26081;DHT22;13991;51.174;4.438;2024-01-06T02:59:50;8.80;99.90
26081;DHT22;13991;51.174;4.438;2024-01-06T03:02:16;8.80;99.90
26081;DHT22;13991;51.174;4.438;2024-01-06T03:04:42;8.90;99.90
26081;DHT22;13991;51.174;4.438;2024-01-06T03:07:07;8.90;99.90
26081;DHT22;13991;51.174;4.438;2024-01-06T03:09:33;8.90;99.90
26081;DHT22;13991;51.174;4.438;2024-01-06T03:11:59;8.90;99.90
26081;DHT22;13991;51.174;4.438;2024-01-06T03:14:24;8.90;99.90
26081;DHT22;13991;51.174;4.438;2024-01-06T03:16:50;9.00;99.90
26081;DHT22;13991;51.174;4.438;2024-01-06T03:19:15;9.00;99.90
26081;DHT22;13991;51.174;4.438;2024-01-06T03:21:41;9.00;99.90
26081;DHT22;13991;51.174;4.438;2024-01-06T03:24:07;8.90;99.90
26081;DHT22;13991;51.174;4.438;2024-01-06T03:26:34;8.90;99.90
26081;DHT22;13991;51.174;4.438;2024-01-06T03:29:00;8.90;99.90
26081;DHT22;13991;51.174;4.438;2024-01-06T03:31:28;8.90;99.90
26081;DHT22;13991;51.174;4.438;2024-01-06T03:33:54;8.90;99.90
26081;DHT22;13991;51.174;4.438;2024-01-06T03:36:21;9.00;99.90
26081;DHT22;13991;51.174;4.438;2024-01-06T03:38:47;9.00;99.90
26081;DHT22;13991;51.174;4.438;2024-01-06T03:41:12;8.90;99.90
26081;DHT22;13991;51.174;4.438;2024-01-06T03:43:38;8.90;99.90
26081;DHT22;13991;51.174;4.438;2024-01-06T03:46:05;8.90;99.90
26081;DHT22;13991;51.174;4.438;2024-01-06T03:48:30;9.00;99.90
26081;DHT22;13991;51.174;4.438;2024-01-06T03:50:58;8.90;99.90
26081;DHT22;13991;51.174;4.438;2024-01-06T03:53:24;8.90;99.90
26081;DHT22;13991;51.174;4.438;2024-01-06T03:55:50;8.80;99.90
26081;DHT22;13991;51.174;4.438;2024-01-06T03:58:15;8.90;99.90
26081;DHT22;13991;51.174;4.438;2024-01-06T04:00:41;8.70;99.90
26081;DHT22;13991;51.174;4.438;2024-01-06T04:03:07;8.70;99.90
26081;DHT22;13991;51.174;4.438;2024-01-06T04:05:33;8.70;99.90
26081;DHT22;13991;51.174;4.438;2024-01-06T04:07:59;8.60;99.90
26081;DHT22;13991;51.174;4.438;2024-01-06T04:10:24;8.60;99.90
26081;DHT22;13991;51.174;4.438;2024-01-06T04:12:50;8.50;99.90
26081;DHT22;13991;51.174;4.438;2024-01-06T04:15:15;8.60;99.90
26081;DHT22;13991;51.174;4.438;2024-01-06T04:17:41;8.60;99.90
26081;DHT22;13991;51.174;4.438;2024-01-06T04:20:07;8.60;99.90
26081;DHT22;13991;51.174;4.438;2024-01-06T04:22:33;8.60;99.90
26081;DHT22;13991;51.174;4.438;2024-01-06T04:25:01;8.60;99.90
26081;DHT22;13991;51.174;4.438;2024-01-06T04:27:26;8.60;99.90
26081;DHT22;13991;51.174;4.438;2024-01-06T04:29:52;8.60;99.90
26081;DHT22;13991;51.174;4.438;2024-01-06T04:32:18;8.50;99.90
26081;DHT22;13991;51.174;4.438;2024-01-06T04:34:44;8.50;99.90
26081;DHT22;13991;51.174;4.438;2024-01-06T04:37:10;8.40;99.90
26081;DHT22;13991;51.174;4.438;2024-01-06T04:39:35;8.50;99.90
26081;DHT22;13991;51.174;4.438;2024-01-06T04:42:01;8.40;99.90
26081;DHT22;13991;51.174;4.438;2024-01-06T04:44:26;8.30;99.90
26081;DHT22;13991;51.174;4.438;2024-01-06T04:46:52;8.30;99.90
26081;DHT22;13991;51.174;4.438;2024-01-06T04:49:17;8.30;99.90
26081;DHT22;13991;51.174;4.438;2024-01-06T04:51:43;8.30;99.90
26081;DHT22;13991;51.174;4.438;2024-01-06T04:54:09;8.30;99.90
26081;DHT22;13991;51.174;4.438;2024-01-06T04:56:34;8.30;99.90
26081;DHT22;13991;51.174;4.438;2024-01-06T04:59:00;8.30;99.90
26081;DHT22;13991;51.174;4.438;2024-01-06T05:01:25;8.40;99.90
26081;DHT22;13991;51.174;4.438;2024-01-06T05:03:51;8.40;99.90
26081;DHT22;13991;51.174;4.438;2024-01-06T05:06:17;8.20;99.90
26081;DHT22;13991;51.174;4.438;2024-01-06T05:08:42;8.10;99.90
26081;DHT22;13991;51.174;4.438;2024-01-06T05:11:10;8.10;99.90
26081;DHT22;13991;51.174;4.438;2024-01-06T05:13:37;8.00;99.90
26081;DHT22;13991;51.174;4.438;2024-01-06T05:16:03;8.00;99.90
26081;DHT22;13991;51.174;4.438;2024-01-06T05:18:28;8.00;99.90
26081;DHT22;13991;51.174;4.438;2024-01-06T05:20:54;7.90;99.90
26081;DHT22;13991;51.174;4.438;2024-01-06T05:23:20;8.00;99.90
26081;DHT22;13991;51.174;4.438;2024-01-06T05:25:46;8.10;99.90
26081;DHT22;13991;51.174;4.438;2024-01-06T05:28:12;8.20;99.90
26081;DHT22;13991;51.174;4.438;2024-01-06T05:30:37;8.20;99.90
26081;DHT22;13991;51.174;4.438;2024-01-06T05:33:03;8.10;99.90
26081;DHT22;13991;51.174;4.438;2024-01-06T05:35:29;7.90;99.90
26081;DHT22;13991;51.174;4.438;2024-01-06T05:37:55;7.90;99.90
26081;DHT22;13991;51.174;4.438;2024-01-06T05:40:21;7.80;99.90
26081;DHT22;13991;51.174;4.438;2024-01-06T05:42:47;7.80;99.90
26081;DHT22;13991;51.174;4.438;2024-01-06T05:45:12;7.80;99.90
26081;DHT22;13991;51.174;4.438;2024-01-06T05:47:38;7.90;99.90
26081;DHT22;13991;51.174;4.438;2024-01-06T05:50:05;7.90;99.90
26081;DHT22;13991;51.174;4.438;2024-01-06T05:52:30;7.90;99.90
26081;DHT22;13991;51.174;4.438;2024-01-06T05:54:56;7.80;99.90
26081;DHT22;13991;51.174;4.438;2024-01-06T05:57:23;7.90;99.90
26081;DHT22;13991;51.174;4.438;2024-01-06T05:59:49;8.00;99.90
26081;DHT22;13991;51.174;4.438;2024-01-06T06:02:14;7.90;99.90
26081;DHT22;13991;51.174;4.438;2024-01-06T06:04:40;7.70;99.90
26081;DHT22;13991;51.174;4.438;2024-01-06T06:07:06;7.60;99.90
26081;DHT22;13991;51.174;4.438;2024-01-06T06:09:31;7.70;99.90
26081;DHT22;13991;51.174;4.438;2024-01-06T06:11:59;7.70;99.90
26081;DHT22;13991;51.174;4.438;2024-01-06T06:14:25;7.70;99.90
26081;DHT22;13991;51.174;4.438;2024-01-06T06:16:51;7.70;99.90
26081;DHT22;13991;51.174;4.438;2024-01-06T06:19:16;7.60;99.90
26081;DHT22;13991;51.174;4.438;2024-01-06T06:21:44;7.60;99.90
26081;DHT22;13991;51.174;4.438;2024-01-06T06:24:09;7.60;99.90
26081;DHT22;13991;51.174;4.438;2024-01-06T06:26:35;7.60;99.90
26081;DHT22;13991;51.174;4.438;2024-01-06T06:29:00;7.70;99.90
26081;DHT22;13991;51.174;4.438;2024-01-06T06:31:26;7.80;99.90
26081;DHT22;13991;51.174;4.438;2024-01-06T06:33:52;7.70;99.90
26081;DHT22;13991;51.174;4.438;2024-01-06T06:36:18;7.80;99.90
26081;DHT22;13991;51.174;4.438;2024-01-06T06:38:43;7.60;99.90
26081;DHT22;13991;51.174;4.438;2024-01-06T06:41:09;7.50;99.90
26081;DHT22;13991;51.174;4.438;2024-01-06T06:43:35;7.40;99.90
26081;DHT22;13991;51.174;4.438;2024-01-06T06:46:00;7.50;99.90
26081;DHT22;13991;51.174;4.438;2024-01-06T06:48:26;7.50;99.90
26081;DHT22;13991;51.174;4.438;2024-01-06T06:50:51;7.60;99.90
26081;DHT22;13991;51.174;4.438;2024-01-06T06:53:17;7.50;99.90
26081;DHT22;13991;51.174;4.438;2024-01-06T06:55:43;7.50;99.90
26081;DHT22;13991;51.174;4.438;2024-01-06T06:58:09;7.50;99.90
26081;DHT22;13991;51.174;4.438;2024-01-06T07:00:35;7.50;99.90
26081;DHT22;13991;51.174;4.438;2024-01-06T07:03:01;7.60;99.90
26081;DHT22;13991;51.174;4.438;2024-01-06T07:05:26;7.60;99.90
26081;DHT22;13991;51.174;4.438;2024-01-06T07:07:52;7.60;99.90
26081;DHT22;13991;51.174;4.438;2024-01-06T07:10:18;7.60;99.90
26081;DHT22;13991;51.174;4.438;2024-01-06T07:12:43;7.60;99.90
26081;DHT22;13991;51.174;4.438;2024-01-06T07:15:09;7.70;99.90
26081;DHT22;13991;51.174;4.438;2024-01-06T07:17:37;7.60;99.90
26081;DHT22;13991;51.174;4.438;2024-01-06T07:20:05;7.60;99.90
26081;DHT22;13991;51.174;4.438;2024-01-06T07:22:32;7.60;99.90
26081;DHT22;13991;51.174;4.438;2024-01-06T07:25:00;7.50;99.90
26081;DHT22;13991;51.174;4.438;2024-01-06T07:27:26;7.50;99.90
26081;DHT22;13991;51.174;4.438;2024-01-06T07:29:52;7.60;99.90
26081;DHT22;13991;51.174;4.438;2024-01-06T07:32:18;7.60;99.90
26081;DHT22;13991;51.174;4.438;2024-01-06T07:34:43;7.60;99.90
26081;DHT22;13991;51.174;4.438;2024-01-06T07:37:09;7.50;99.90
26081;DHT22;13991;51.174;4.438;2024-01-06T07:39:35;7.50;99.90
26081;DHT22;13991;51.174;4.438;2024-01-06T07:42:00;7.60;99.90
26081;DHT22;13991;51.174;4.438;2024-01-06T07:44:26;7.50;99.90
26081;DHT22;13991;51.174;4.438;2024-01-06T07:46:52;7.50;99.90
26081;DHT22;13991;51.174;4.438;2024-01-06T07:49:18;7.40;99.90
26081;DHT22;13991;51.174;4.438;2024-01-06T07:51:44;7.40;99.90
26081;DHT22;13991;51.174;4.438;2024-01-06T07:54:09;7.40;99.90
26081;DHT22;13991;51.174;4.438;2024-01-06T07:56:37;7.30;99.90
26081;DHT22;13991;51.174;4.438;2024-01-06T07:59:03;7.20;99.90
26081;DHT22;13991;51.174;4.438;2024-01-06T08:01:29;7.20;99.90
26081;DHT22;13991;51.174;4.438;2024-01-06T08:03:55;7.20;99.90
26081;DHT22;13991;51.174;4.438;2024-01-06T08:06:21;7.20;99.90
26081;DHT22;13991;51.174;4.438;2024-01-06T08:08:47;7.20;99.90
26081;DHT22;13991;51.174;4.438;2024-01-06T08:11:12;7.30;99.90
26081;DHT22;13991;51.174;4.438;2024-01-06T08:13:38;7.30;99.90
26081;DHT22;13991;51.174;4.438;2024-01-06T08:16:04;7.40;99.90
26081;DHT22;13991;51.174;4.438;2024-01-06T08:18:31;7.40;99.90
26081;DHT22;13991;51.174;4.438;2024-01-06T08:20:56;7.50;99.90
26081;DHT22;13991;51.174;4.438;2024-01-06T08:23:22;7.40;99.90
26081;DHT22;13991;51.174;4.438;2024-01-06T08:25:48;7.30;99.90
26081;DHT22;13991;51.174;4.438;2024-01-06T08:28:14;7.40;99.90
26081;DHT22;13991;51.174;4.438;2024-01-06T08:30:44;7.30;99.90
26081;DHT22;13991;51.174;4.438;2024-01-06T08:33:10;7.30;99.90
26081;DHT22;13991;51.174;4.438;2024-01-06T08:35:36;7.30;99.90
26081;DHT22;13991;51.174;4.438;2024-01-06T08:38:06;7.10;99.90
26081;DHT22;13991;51.174;4.438;2024-01-06T08:40:33;7.00;99.90
26081;DHT22;13991;51.174;4.438;2024-01-06T08:42:58;7.10;99.90
26081;DHT22;13991;51.174;4.438;2024-01-06T08:45:24;7.10;99.90
26081;DHT22;13991;51.174;4.438;2024-01-06T08:47:50;7.20;99.90
26081;DHT22;13991;51.174;4.438;2024-01-06T08:50:15;7.20;99.90
26081;DHT22;13991;51.174;4.438;2024-01-06T08:52:43;7.10;99.90
26081;DHT22;13991;51.174;4.438;2024-01-06T08:55:09;7.20;99.90
26081;DHT22;13991;51.174;4.438;2024-01-06T08:57:35;7.20;99.90
26081;DHT22;13991;51.174;4.438;2024-01-06T09:00:00;7.10;99.90
26081;DHT22;13991;51.174;4.438;2024-01-06T09:02:26;7.00;99.90
26081;DHT22;13991;51.174;4.438;2024-01-06T09:04:51;7.00;99.90
26081;DHT22;13991;51.174;4.438;2024-01-06T09:07:17;7.00;99.90
26081;DHT22;13991;51.174;4.438;2024-01-06T09:09:44;7.00;99.90
26081;DHT22;13991;51.174;4.438;2024-01-06T09:12:09;7.10;99.90
26081;DHT22;13991;51.174;4.438;2024-01-06T09:14:35;7.00;99.90
26081;DHT22;13991;51.174;4.438;2024-01-06T09:17:01;7.00;99.90
26081;DHT22;13991;51.174;4.438;2024-01-06T09:19:26;7.00;99.90
26081;DHT22;13991;51.174;4.438;2024-01-06T09:21:54;7.00;99.90
26081;DHT22;13991;51.174;4.438;2024-01-06T09:24:20;7.00;99.90
26081;DHT22;13991;51.174;4.438;2024-01-06T09:26:46;7.00;99.90
26081;DHT22;13991;51.174;4.438;2024-01-06T09:29:11;7.00;99.90
26081;DHT22;13991;51.174;4.438;2024-01-06T09:31:37;7.00;99.90
26081;DHT22;13991;51.174;4.438;2024-01-06T09:34:03;7.00;99.90
26081;DHT22;13991;51.174;4.438;2024-01-06T09:36:31;7.00;99.90
26081;DHT22;13991;51.174;4.438;2024-01-06T09:38:57;7.00;99.90
26081;DHT22;13991;51.174;4.438;2024-01-06T09:41:23;7.10;99.90
26081;DHT22;13991;51.174;4.438;2024-01-06T09:43:50;7.10;99.90
26081;DHT22;13991;51.174;4.438;2024-01-06T09:46:23;7.00;99.90
26081;DHT22;13991;51.174;4.438;2024-01-06T09:48:51;7.10;99.90
26081;DHT22;13991;51.174;4.438;2024-01-06T09:51:19;7.20;99.90
26081;DHT22;13991;51.174;4.438;2024-01-06T09:56:24;7.20;99.90
26081;DHT22;13991;51.174;4.438;2024-01-06T09:58:50;7.30;99.90
26081;DHT22;13991;51.174;4.438;2024-01-06T10:01:18;7.30;99.90
26081;DHT22;13991;51.174;4.438;2024-01-06T10:03:44;7.30;99.90
26081;DHT22;13991;51.174;4.438;2024-01-06T10:06:11;7.20;99.90
26081;DHT22;13991;51.174;4.438;2024-01-06T10:08:38;7.20;99.90
26081;DHT22;13991;51.174;4.438;2024-01-06T10:11:06;7.10;99.90
26081;DHT22;13991;51.174;4.438;2024-01-06T10:13:33;7.20;99.90
26081;DHT22;13991;51.174;4.438;2024-01-06T10:15:59;7.20;99.90
26081;DHT22;13991;51.174;4.438;2024-01-06T10:18:25;7.20;99.90
26081;DHT22;13991;51.174;4.438;2024-01-06T10:20:52;7.20;99.90
26081;DHT22;13991;51.174;4.438;2024-01-06T10:23:19;7.20;99.90
26081;DHT22;13991;51.174;4.438;2024-01-06T10:25:47;7.20;99.90
26081;DHT22;13991;51.174;4.438;2024-01-06T10:28:13;7.20;99.90
26081;DHT22;13991;51.174;4.438;2024-01-06T10:30:41;7.20;99.90
26081;DHT22;13991;51.174;4.438;2024-01-06T10:33:10;7.40;99.90
26081;DHT22;13991;51.174;4.438;2024-01-06T10:35:37;7.20;99.90
26081;DHT22;13991;51.174;4.438;2024-01-06T10:38:03;7.20;99.90
26081;DHT22;13991;51.174;4.438;2024-01-06T10:40:29;7.20;99.90
26081;DHT22;13991;51.174;4.438;2024-01-06T10:42:55;7.20;99.90
26081;DHT22;13991;51.174;4.438;2024-01-06T10:45:23;7.20;99.90
26081;DHT22;13991;51.174;4.438;2024-01-06T10:47:49;7.20;99.90
26081;DHT22;13991;51.174;4.438;2024-01-06T10:50:17;7.30;99.90
26081;DHT22;13991;51.174;4.438;2024-01-06T10:52:43;7.20;99.90
26081;DHT22;13991;51.174;4.438;2024-01-06T10:55:09;7.10;99.90
26081;DHT22;13991;51.174;4.438;2024-01-06T10:57:38;7.10;99.90
26081;DHT22;13991;51.174;4.438;2024-01-06T11:00:04;7.10;99.90
26081;DHT22;13991;51.174;4.438;2024-01-06T11:02:32;7.10;99.90
26081;DHT22;13991;51.174;4.438;2024-01-06T11:04:58;7.00;99.90
26081;DHT22;13991;51.174;4.438;2024-01-06T11:07:25;7.10;99.90
26081;DHT22;13991;51.174;4.438;2024-01-06T11:09:58;7.20;99.90
26081;DHT22;13991;51.174;4.438;2024-01-06T11:12:24;7.20;99.90
26081;DHT22;13991;51.174;4.438;2024-01-06T11:14:52;7.30;99.90
26081;DHT22;13991;51.174;4.438;2024-01-06T11:17:52;7.30;99.90
26081;DHT22;13991;51.174;4.438;2024-01-06T11:20:19;7.40;99.90
26081;DHT22;13991;51.174;4.438;2024-01-06T11:22:47;7.40;99.90
26081;DHT22;13991;51.174;4.438;2024-01-06T11:25:22;7.30;99.90
26081;DHT22;13991;51.174;4.438;2024-01-06T11:27:49;7.30;99.90
26081;DHT22;13991;51.174;4.438;2024-01-06T11:30:35;7.40;99.90
26081;DHT22;13991;51.174;4.438;2024-01-06T11:33:02;7.30;99.90
26081;DHT22;13991;51.174;4.438;2024-01-06T11:35:30;7.20;99.90
26081;DHT22;13991;51.174;4.438;2024-01-06T11:37:57;7.20;99.90
26081;DHT22;13991;51.174;4.438;2024-01-06T11:40:31;7.20;99.90
26081;DHT22;13991;51.174;4.438;2024-01-06T11:43:03;7.20;99.90
26081;DHT22;13991;51.174;4.438;2024-01-06T11:45:31;7.20;99.90
26081;DHT22;13991;51.174;4.438;2024-01-06T11:48:05;7.20;99.90
26081;DHT22;13991;51.174;4.438;2024-01-06T11:50:33;7.30;99.90
26081;DHT22;13991;51.174;4.438;2024-01-06T11:52:59;7.30;99.90
26081;DHT22;13991;51.174;4.438;2024-01-06T11:55:25;7.30;99.90
26081;DHT22;13991;51.174;4.438;2024-01-06T11:58:01;7.50;99.90
26081;DHT22;13991;51.174;4.438;2024-01-06T12:00:32;7.30;99.90
26081;DHT22;13991;51.174;4.438;2024-01-06T12:03:01;7.40;99.90
26081;DHT22;13991;51.174;4.438;2024-01-06T12:05:27;7.40;99.90
26081;DHT22;13991;51.174;4.438;2024-01-06T12:08:03;7.40;99.90
26081;DHT22;13991;51.174;4.438;2024-01-06T12:10:32;7.30;99.90
26081;DHT22;13991;51.174;4.438;2024-01-06T12:13:01;7.40;99.90
26081;DHT22;13991;51.174;4.438;2024-01-06T12:15:30;7.40;99.90
26081;DHT22;13991;51.174;4.438;2024-01-06T12:17:56;7.40;99.90
26081;DHT22;13991;51.174;4.438;2024-01-06T12:20:24;7.40;99.90
26081;DHT22;13991;51.174;4.438;2024-01-06T12:22:53;7.40;99.90
26081;DHT22;13991;51.174;4.438;2024-01-06T12:25:23;7.40;99.90
26081;DHT22;13991;51.174;4.438;2024-01-06T12:27:49;7.40;99.90
26081;DHT22;13991;51.174;4.438;2024-01-06T12:30:20;7.30;99.90
26081;DHT22;13991;51.174;4.438;2024-01-06T12:32:47;7.20;99.90
26081;DHT22;13991;51.174;4.438;2024-01-06T12:35:14;7.20;99.90
26081;DHT22;13991;51.174;4.438;2024-01-06T12:37:43;7.10;99.90
26081;DHT22;13991;51.174;4.438;2024-01-06T12:40:11;7.10;99.90
26081;DHT22;13991;51.174;4.438;2024-01-06T12:42:38;7.00;99.90
26081;DHT22;13991;51.174;4.438;2024-01-06T12:45:05;7.10;99.90
26081;DHT22;13991;51.174;4.438;2024-01-06T12:47:32;7.10;99.90
26081;DHT22;13991;51.174;4.438;2024-01-06T12:49:58;7.20;99.90
26081;DHT22;13991;51.174;4.438;2024-01-06T12:52:23;7.20;99.90
26081;DHT22;13991;51.174;4.438;2024-01-06T12:54:49;7.10;99.90
26081;DHT22;13991;51.174;4.438;2024-01-06T12:57:15;7.10;99.90
26081;DHT22;13991;51.174;4.438;2024-01-06T12:59:41;7.10;99.90
26081;DHT22;13991;51.174;4.438;2024-01-06T13:02:07;6.90;99.90
26081;DHT22;13991;51.174;4.438;2024-01-06T13:04:33;6.90;99.90
26081;DHT22;13991;51.174;4.438;2024-01-06T13:07:00;6.90;99.90
26081;DHT22;13991;51.174;4.438;2024-01-06T13:09:26;7.10;99.90
26081;DHT22;13991;51.174;4.438;2024-01-06T13:11:52;7.20;99.90
26081;DHT22;13991;51.174;4.438;2024-01-06T13:14:21;7.30;99.90
26081;DHT22;13991;51.174;4.438;2024-01-06T13:16:47;7.30;99.90
26081;DHT22;13991;51.174;4.438;2024-01-06T13:19:13;7.20;99.90
26081;DHT22;13991;51.174;4.438;2024-01-06T13:21:38;7.30;99.90
26081;DHT22;13991;51.174;4.438;2024-01-06T13:24:06;7.30;99.90
26081;DHT22;13991;51.174;4.438;2024-01-06T13:26:32;7.30;99.90
26081;DHT22;13991;51.174;4.438;2024-01-06T13:28:58;7.30;99.90
26081;DHT22;13991;51.174;4.438;2024-01-06T13:31:24;7.30;99.90
26081;DHT22;13991;51.174;4.438;2024-01-06T13:33:50;7.20;99.90
26081;DHT22;13991;51.174;4.438;2024-01-06T13:36:19;7.20;99.90
26081;DHT22;13991;51.174;4.438;2024-01-06T13:38:45;7.20;99.90
26081;DHT22;13991;51.174;4.438;2024-01-06T13:41:11;7.20;99.90
26081;DHT22;13991;51.174;4.438;2024-01-06T13:43:37;7.10;99.90
26081;DHT22;13991;51.174;4.438;2024-01-06T13:46:02;7.10;99.90
26081;DHT22;13991;51.174;4.438;2024-01-06T13:48:28;7.00;99.90
26081;DHT22;13991;51.174;4.438;2024-01-06T13:50:54;7.00;99.90
26081;DHT22;13991;51.174;4.438;2024-01-06T13:53:20;6.90;99.90
26081;DHT22;13991;51.174;4.438;2024-01-06T13:55:45;7.00;99.90
26081;DHT22;13991;51.174;4.438;2024-01-06T13:58:11;7.00;99.90
26081;DHT22;13991;51.174;4.438;2024-01-06T14:00:36;7.10;99.90
26081;DHT22;13991;51.174;4.438;2024-01-06T14:03:03;7.20;99.90
26081;DHT22;13991;51.174;4.438;2024-01-06T14:05:29;7.10;99.90
26081;DHT22;13991;51.174;4.438;2024-01-06T14:07:56;7.10;99.90
26081;DHT22;13991;51.174;4.438;2024-01-06T14:10:21;7.10;99.90
26081;DHT22;13991;51.174;4.438;2024-01-06T14:12:47;7.10;99.90
26081;DHT22;13991;51.174;4.438;2024-01-06T14:15:13;7.00;99.90
26081;DHT22;13991;51.174;4.438;2024-01-06T14:17:39;6.90;99.90
26081;DHT22;13991;51.174;4.438;2024-01-06T14:20:07;6.90;99.90
26081;DHT22;13991;51.174;4.438;2024-01-06T14:22:34;7.00;99.90
26081;DHT22;13991;51.174;4.438;2024-01-06T14:25:03;7.00;99.90
26081;DHT22;13991;51.174;4.438;2024-01-06T14:27:28;6.90;99.90
26081;DHT22;13991;51.174;4.438;2024-01-06T14:29:55;7.00;99.90
26081;DHT22;13991;51.174;4.438;2024-01-06T14:32:21;7.00;99.90
26081;DHT22;13991;51.174;4.438;2024-01-06T14:34:49;7.00;99.90
26081;DHT22;13991;51.174;4.438;2024-01-06T14:37:16;7.10;99.90
26081;DHT22;13991;51.174;4.438;2024-01-06T14:39:41;7.10;99.90
26081;DHT22;13991;51.174;4.438;2024-01-06T14:42:07;7.20;99.90
26081;DHT22;13991;51.174;4.438;2024-01-06T14:44:32;7.20;99.90
26081;DHT22;13991;51.174;4.438;2024-01-06T14:46:58;7.10;99.90
26081;DHT22;13991;51.174;4.438;2024-01-06T14:49:24;7.10;99.90
26081;DHT22;13991;51.174;4.438;2024-01-06T14:51:49;7.10;99.90
26081;DHT22;13991;51.174;4.438;2024-01-06T14:54:15;7.10;99.90
26081;DHT22;13991;51.174;4.438;2024-01-06T14:56:41;7.10;99.90
26081;DHT22;13991;51.174;4.438;2024-01-06T14:59:07;7.20;99.90
26081;DHT22;13991;51.174;4.438;2024-01-06T15:01:33;7.20;99.90
26081;DHT22;13991;51.174;4.438;2024-01-06T15:03:59;7.20;99.90
26081;DHT22;13991;51.174;4.438;2024-01-06T15:06:24;7.20;99.90
26081;DHT22;13991;51.174;4.438;2024-01-06T15:08:50;7.20;99.90
26081;DHT22;13991;51.174;4.438;2024-01-06T15:11:16;7.20;99.90
26081;DHT22;13991;51.174;4.438;2024-01-06T15:13:41;7.30;99.90
26081;DHT22;13991;51.174;4.438;2024-01-06T15:16:07;7.20;99.90
26081;DHT22;13991;51.174;4.438;2024-01-06T15:18:33;7.00;99.90
26081;DHT22;13991;51.174;4.438;2024-01-06T15:21:00;7.00;99.90
26081;DHT22;13991;51.174;4.438;2024-01-06T15:23:26;6.90;99.90
26081;DHT22;13991;51.174;4.438;2024-01-06T15:25:52;7.00;99.90
26081;DHT22;13991;51.174;4.438;2024-01-06T15:28:17;6.90;99.90
26081;DHT22;13991;51.174;4.438;2024-01-06T15:30:43;6.90;99.90
26081;DHT22;13991;51.174;4.438;2024-01-06T15:33:09;6.90;99.90
26081;DHT22;13991;51.174;4.438;2024-01-06T15:35:34;7.00;99.90
26081;DHT22;13991;51.174;4.438;2024-01-06T15:38:00;7.10;99.90
26081;DHT22;13991;51.174;4.438;2024-01-06T15:40:25;7.10;99.90
26081;DHT22;13991;51.174;4.438;2024-01-06T15:42:51;7.10;99.90